Terminal Aerodrome Forecast
Issued by NWS

Home | Current Version | Previous Version | Text Only | Print | Product List | Glossary On
Versions: 1 2 3 4 5 6 7 8 9 10 11 12 13 14
000
FTUS45 KGJT 200524
TAFMTJ
TAF
KMTJ 200524Z 2006/2106 13005KT P6SM FEW150 SCT250
     FM201800 34006KT P6SM SCT100 SCT250
     FM210300 15005KT P6SM SCT250=

USA.gov is the U.S. government's official web portal to all federal, state and local government web resources and services.